sensor_id;sensor_type;location;lat;lon;timestamp;P1;durP1;ratioP1;P2;durP2;ratioP2
56806;SDS011;42687;42.524;12.052;2023-04-25T00:01:30;8.00;;;1.77;;
56806;SDS011;42687;42.524;12.052;2023-04-25T00:03:58;8.18;;;2.58;;
56806;SDS011;42687;42.524;12.052;2023-04-25T00:06:25;7.90;;;4.43;;
56806;SDS011;42687;42.524;12.052;2023-04-25T00:08:52;7.38;;;3.65;;
56806;SDS011;42687;42.524;12.052;2023-04-25T00:11:18;9.30;;;4.55;;
56806;SDS011;42687;42.524;12.052;2023-04-25T00:13:44;8.15;;;3.65;;
56806;SDS011;42687;42.524;12.052;2023-04-25T00:16:11;6.75;;;4.72;;
56806;SDS011;42687;42.524;12.052;2023-04-25T00:18:38;11.50;;;4.97;;
56806;SDS011;42687;42.524;12.052;2023-04-25T00:21:04;8.18;;;4.07;;
56806;SDS011;42687;42.524;12.052;2023-04-25T00:23:31;9.38;;;4.57;;
56806;SDS011;42687;42.524;12.052;2023-04-25T00:25:57;13.25;;;4.20;;
56806;SDS011;42687;42.524;12.052;2023-04-25T00:28:22;8.18;;;4.00;;
56806;SDS011;42687;42.524;12.052;2023-04-25T00:30:48;11.52;;;4.60;;
56806;SDS011;42687;42.524;12.052;2023-04-25T00:33:14;13.77;;;5.60;;
56806;SDS011;42687;42.524;12.052;2023-04-25T00:35:39;12.30;;;4.15;;
56806;SDS011;42687;42.524;12.052;2023-04-25T00:38:05;13.77;;;5.00;;
56806;SDS011;42687;42.524;12.052;2023-04-25T00:40:31;14.35;;;4.90;;
56806;SDS011;42687;42.524;12.052;2023-04-25T00:42:57;12.52;;;4.32;;
56806;SDS011;42687;42.524;12.052;2023-04-25T00:45:23;14.52;;;7.50;;
56806;SDS011;42687;42.524;12.052;2023-04-25T00:47:54;17.05;;;5.30;;
56806;SDS011;42687;42.524;12.052;2023-04-25T00:50:21;10.93;;;5.40;;
56806;SDS011;42687;42.524;12.052;2023-04-25T00:52:47;11.98;;;5.40;;
56806;SDS011;42687;42.524;12.052;2023-04-25T00:55:13;8.95;;;5.03;;
56806;SDS011;42687;42.524;12.052;2023-04-25T00:57:40;12.88;;;6.40;;
56806;SDS011;42687;42.524;12.052;2023-04-25T01:00:07;15.98;;;7.43;;
56806;SDS011;42687;42.524;12.052;2023-04-25T01:02:35;13.25;;;6.68;;
56806;SDS011;42687;42.524;12.052;2023-04-25T01:05:02;22.80;;;8.77;;
56806;SDS011;42687;42.524;12.052;2023-04-25T01:07:28;18.83;;;7.22;;
56806;SDS011;42687;42.524;12.052;2023-04-25T01:09:54;17.27;;;7.60;;
56806;SDS011;42687;42.524;12.052;2023-04-25T01:12:20;17.70;;;7.70;;
56806;SDS011;42687;42.524;12.052;2023-04-25T01:14:46;16.55;;;7.47;;
56806;SDS011;42687;42.524;12.052;2023-04-25T01:17:12;18.27;;;7.65;;
56806;SDS011;42687;42.524;12.052;2023-04-25T01:19:40;14.02;;;6.15;;
56806;SDS011;42687;42.524;12.052;2023-04-25T01:22:05;12.18;;;6.95;;
56806;SDS011;42687;42.524;12.052;2023-04-25T01:24:32;10.70;;;6.22;;
56806;SDS011;42687;42.524;12.052;2023-04-25T01:26:58;10.38;;;6.78;;
56806;SDS011;42687;42.524;12.052;2023-04-25T01:29:26;9.25;;;6.85;;
56806;SDS011;42687;42.524;12.052;2023-04-25T01:31:53;11.60;;;5.75;;
56806;SDS011;42687;42.524;12.052;2023-04-25T01:34:20;9.50;;;5.80;;
56806;SDS011;42687;42.524;12.052;2023-04-25T01:36:47;9.27;;;5.32;;
56806;SDS011;42687;42.524;12.052;2023-04-25T01:39:15;7.82;;;5.50;;
56806;SDS011;42687;42.524;12.052;2023-04-25T01:41:42;10.23;;;5.72;;
56806;SDS011;42687;42.524;12.052;2023-04-25T01:44:08;24.05;;;7.40;;
56806;SDS011;42687;42.524;12.052;2023-04-25T01:46:34;10.63;;;6.43;;
56806;SDS011;42687;42.524;12.052;2023-04-25T01:49:00;13.88;;;5.63;;
56806;SDS011;42687;42.524;12.052;2023-04-25T01:51:26;8.48;;;5.00;;
56806;SDS011;42687;42.524;12.052;2023-04-25T01:53:52;7.95;;;4.70;;
56806;SDS011;42687;42.524;12.052;2023-04-25T01:56:19;8.05;;;4.47;;
56806;SDS011;42687;42.524;12.052;2023-04-25T01:58:45;8.02;;;5.50;;
56806;SDS011;42687;42.524;12.052;2023-04-25T02:01:11;7.70;;;4.72;;
56806;SDS011;42687;42.524;12.052;2023-04-25T02:03:37;8.32;;;4.38;;
56806;SDS011;42687;42.524;12.052;2023-04-25T02:06:03;8.57;;;4.35;;
56806;SDS011;42687;42.524;12.052;2023-04-25T02:08:28;14.38;;;5.82;;
56806;SDS011;42687;42.524;12.052;2023-04-25T02:10:55;8.43;;;4.78;;
56806;SDS011;42687;42.524;12.052;2023-04-25T02:13:21;7.32;;;4.85;;
56806;SDS011;42687;42.524;12.052;2023-04-25T02:15:47;6.97;;;4.70;;
56806;SDS011;42687;42.524;12.052;2023-04-25T02:18:12;10.15;;;3.63;;
56806;SDS011;42687;42.524;12.052;2023-04-25T02:20:41;10.18;;;5.88;;
56806;SDS011;42687;42.524;12.052;2023-04-25T02:23:07;11.18;;;4.40;;
56806;SDS011;42687;42.524;12.052;2023-04-25T02:25:33;5.65;;;3.50;;
56806;SDS011;42687;42.524;12.052;2023-04-25T02:27:59;7.25;;;4.47;;
56806;SDS011;42687;42.524;12.052;2023-04-25T02:30:25;9.30;;;4.20;;
56806;SDS011;42687;42.524;12.052;2023-04-25T02:32:50;7.47;;;4.30;;
56806;SDS011;42687;42.524;12.052;2023-04-25T02:35:16;8.85;;;4.03;;
56806;SDS011;42687;42.524;12.052;2023-04-25T02:37:42;9.18;;;4.40;;
56806;SDS011;42687;42.524;12.052;2023-04-25T02:40:08;9.70;;;3.40;;
56806;SDS011;42687;42.524;12.052;2023-04-25T02:42:34;27.90;;;5.03;;
56806;SDS011;42687;42.524;12.052;2023-04-25T02:45:01;17.45;;;5.35;;
56806;SDS011;42687;42.524;12.052;2023-04-25T02:47:27;8.68;;;4.03;;
56806;SDS011;42687;42.524;12.052;2023-04-25T02:49:53;8.32;;;3.40;;
56806;SDS011;42687;42.524;12.052;2023-04-25T02:52:19;8.52;;;3.80;;
56806;SDS011;42687;42.524;12.052;2023-04-25T02:54:46;7.40;;;4.50;;
56806;SDS011;42687;42.524;12.052;2023-04-25T02:57:12;7.13;;;4.18;;
56806;SDS011;42687;42.524;12.052;2023-04-25T02:59:38;6.25;;;3.53;;
56806;SDS011;42687;42.524;12.052;2023-04-25T03:02:03;8.98;;;4.80;;
56806;SDS011;42687;42.524;12.052;2023-04-25T03:04:29;6.85;;;3.35;;
56806;SDS011;42687;42.524;12.052;2023-04-25T03:06:55;7.57;;;4.55;;
56806;SDS011;42687;42.524;12.052;2023-04-25T03:09:21;5.70;;;4.00;;
56806;SDS011;42687;42.524;12.052;2023-04-25T03:11:47;10.07;;;5.70;;
56806;SDS011;42687;42.524;12.052;2023-04-25T03:14:13;7.35;;;4.20;;
56806;SDS011;42687;42.524;12.052;2023-04-25T03:16:39;8.13;;;5.97;;
56806;SDS011;42687;42.524;12.052;2023-04-25T03:19:05;7.80;;;4.70;;
56806;SDS011;42687;42.524;12.052;2023-04-25T03:21:31;5.68;;;2.90;;
56806;SDS011;42687;42.524;12.052;2023-04-25T03:23:59;7.93;;;4.43;;
56806;SDS011;42687;42.524;12.052;2023-04-25T03:26:25;6.10;;;2.22;;
56806;SDS011;42687;42.524;12.052;2023-04-25T03:28:51;7.93;;;3.83;;
56806;SDS011;42687;42.524;12.052;2023-04-25T03:31:17;6.20;;;3.75;;
56806;SDS011;42687;42.524;12.052;2023-04-25T03:33:43;11.80;;;5.30;;
56806;SDS011;42687;42.524;12.052;2023-04-25T03:36:08;10.68;;;4.95;;
56806;SDS011;42687;42.524;12.052;2023-04-25T03:38:35;8.50;;;4.78;;
56806;SDS011;42687;42.524;12.052;2023-04-25T03:41:01;9.35;;;4.40;;
56806;SDS011;42687;42.524;12.052;2023-04-25T03:43:27;8.25;;;4.00;;
56806;SDS011;42687;42.524;12.052;2023-04-25T03:45:53;7.25;;;4.50;;
56806;SDS011;42687;42.524;12.052;2023-04-25T03:48:20;10.32;;;5.15;;
56806;SDS011;42687;42.524;12.052;2023-04-25T03:50:51;7.70;;;3.97;;
56806;SDS011;42687;42.524;12.052;2023-04-25T03:53:17;8.02;;;4.95;;
56806;SDS011;42687;42.524;12.052;2023-04-25T03:55:43;6.72;;;4.32;;
56806;SDS011;42687;42.524;12.052;2023-04-25T03:58:09;6.82;;;3.90;;
56806;SDS011;42687;42.524;12.052;2023-04-25T04:00:35;6.38;;;3.83;;
56806;SDS011;42687;42.524;12.052;2023-04-25T04:03:01;10.02;;;4.88;;
56806;SDS011;42687;42.524;12.052;2023-04-25T04:05:27;8.52;;;5.63;;
56806;SDS011;42687;42.524;12.052;2023-04-25T04:07:53;10.23;;;4.75;;
56806;SDS011;42687;42.524;12.052;2023-04-25T04:10:20;18.02;;;3.30;;
56806;SDS011;42687;42.524;12.052;2023-04-25T04:12:46;54.97;;;6.78;;
56806;SDS011;42687;42.524;12.052;2023-04-25T04:15:12;7.72;;;4.95;;
56806;SDS011;42687;42.524;12.052;2023-04-25T04:17:38;17.50;;;4.75;;
56806;SDS011;42687;42.524;12.052;2023-04-25T04:20:04;28.90;;;3.45;;
56806;SDS011;42687;42.524;12.052;2023-04-25T04:22:31;10.57;;;4.32;;
56806;SDS011;42687;42.524;12.052;2023-04-25T04:24:57;39.47;;;6.65;;
56806;SDS011;42687;42.524;12.052;2023-04-25T04:27:23;27.05;;;5.32;;
56806;SDS011;42687;42.524;12.052;2023-04-25T04:29:49;53.30;;;8.25;;
56806;SDS011;42687;42.524;12.052;2023-04-25T04:32:17;9.07;;;4.25;;
56806;SDS011;42687;42.524;12.052;2023-04-25T04:34:43;7.85;;;5.22;;
56806;SDS011;42687;42.524;12.052;2023-04-25T04:37:09;7.95;;;3.92;;
56806;SDS011;42687;42.524;12.052;2023-04-25T04:39:35;6.90;;;3.22;;
56806;SDS011;42687;42.524;12.052;2023-04-25T04:42:02;9.95;;;4.80;;
56806;SDS011;42687;42.524;12.052;2023-04-25T04:44:29;8.23;;;5.70;;
56806;SDS011;42687;42.524;12.052;2023-04-25T04:46:58;6.22;;;2.92;;
56806;SDS011;42687;42.524;12.052;2023-04-25T04:49:24;8.73;;;2.90;;
56806;SDS011;42687;42.524;12.052;2023-04-25T04:51:50;6.03;;;2.40;;
56806;SDS011;42687;42.524;12.052;2023-04-25T04:54:16;7.38;;;3.97;;
56806;SDS011;42687;42.524;12.052;2023-04-25T04:56:41;7.25;;;3.17;;
56806;SDS011;42687;42.524;12.052;2023-04-25T04:59:07;8.80;;;3.40;;
56806;SDS011;42687;42.524;12.052;2023-04-25T05:01:33;5.45;;;3.30;;
56806;SDS011;42687;42.524;12.052;2023-04-25T05:04:02;9.10;;;4.05;;
56806;SDS011;42687;42.524;12.052;2023-04-25T05:06:29;7.68;;;3.88;;
56806;SDS011;42687;42.524;12.052;2023-04-25T05:08:56;7.18;;;2.28;;
56806;SDS011;42687;42.524;12.052;2023-04-25T05:11:23;6.00;;;2.80;;
56806;SDS011;42687;42.524;12.052;2023-04-25T05:13:52;6.85;;;4.00;;
56806;SDS011;42687;42.524;12.052;2023-04-25T05:16:18;6.97;;;3.05;;
56806;SDS011;42687;42.524;12.052;2023-04-25T05:18:45;8.10;;;2.47;;
56806;SDS011;42687;42.524;12.052;2023-04-25T05:21:11;12.50;;;3.90;;
56806;SDS011;42687;42.524;12.052;2023-04-25T05:23:37;9.00;;;3.45;;
56806;SDS011;42687;42.524;12.052;2023-04-25T05:26:03;8.48;;;4.35;;
56806;SDS011;42687;42.524;12.052;2023-04-25T05:28:29;7.90;;;2.80;;
56806;SDS011;42687;42.524;12.052;2023-04-25T05:30:55;22.13;;;6.03;;
56806;SDS011;42687;42.524;12.052;2023-04-25T05:33:21;10.35;;;4.40;;
56806;SDS011;42687;42.524;12.052;2023-04-25T05:35:48;8.30;;;3.58;;
56806;SDS011;42687;42.524;12.052;2023-04-25T05:38:14;8.73;;;4.03;;
56806;SDS011;42687;42.524;12.052;2023-04-25T05:40:39;12.27;;;3.83;;
56806;SDS011;42687;42.524;12.052;2023-04-25T05:43:05;9.98;;;4.40;;
56806;SDS011;42687;42.524;12.052;2023-04-25T05:45:32;9.30;;;3.58;;
56806;SDS011;42687;42.524;12.052;2023-04-25T05:47:58;12.93;;;4.38;;
56806;SDS011;42687;42.524;12.052;2023-04-25T05:50:23;8.77;;;4.45;;
56806;SDS011;42687;42.524;12.052;2023-04-25T05:52:50;20.33;;;7.05;;
56806;SDS011;42687;42.524;12.052;2023-04-25T05:55:15;11.68;;;3.30;;
56806;SDS011;42687;42.524;12.052;2023-04-25T05:57:41;15.05;;;5.15;;
56806;SDS011;42687;42.524;12.052;2023-04-25T06:00:11;27.92;;;7.97;;
56806;SDS011;42687;42.524;12.052;2023-04-25T06:02:38;15.95;;;6.90;;
56806;SDS011;42687;42.524;12.052;2023-04-25T06:05:04;12.52;;;5.75;;
56806;SDS011;42687;42.524;12.052;2023-04-25T06:07:30;7.70;;;5.22;;
56806;SDS011;42687;42.524;12.052;2023-04-25T06:09:56;10.88;;;4.85;;
56806;SDS011;42687;42.524;12.052;2023-04-25T06:12:22;11.20;;;3.10;;
56806;SDS011;42687;42.524;12.052;2023-04-25T06:14:48;7.55;;;3.05;;
56806;SDS011;42687;42.524;12.052;2023-04-25T06:17:14;6.20;;;3.55;;
56806;SDS011;42687;42.524;12.052;2023-04-25T06:19:39;3.70;;;2.72;;
56806;SDS011;42687;42.524;12.052;2023-04-25T06:22:06;7.88;;;3.33;;
56806;SDS011;42687;42.524;12.052;2023-04-25T06:24:32;18.50;;;4.53;;
56806;SDS011;42687;42.524;12.052;2023-04-25T06:26:58;10.10;;;3.35;;
56806;SDS011;42687;42.524;12.052;2023-04-25T06:29:25;6.20;;;2.58;;
56806;SDS011;42687;42.524;12.052;2023-04-25T06:31:50;4.45;;;1.80;;
56806;SDS011;42687;42.524;12.052;2023-04-25T06:34:16;18.10;;;2.97;;
56806;SDS011;42687;42.524;12.052;2023-04-25T06:36:42;4.57;;;1.98;;
56806;SDS011;42687;42.524;12.052;2023-04-25T06:39:09;5.97;;;3.50;;
56806;SDS011;42687;42.524;12.052;2023-04-25T06:41:35;15.80;;;3.95;;
56806;SDS011;42687;42.524;12.052;2023-04-25T06:44:01;7.20;;;3.22;;
56806;SDS011;42687;42.524;12.052;2023-04-25T06:46:27;5.28;;;1.08;;
56806;SDS011;42687;42.524;12.052;2023-04-25T06:48:53;5.57;;;2.45;;
56806;SDS011;42687;42.524;12.052;2023-04-25T06:51:18;10.70;;;4.97;;
56806;SDS011;42687;42.524;12.052;2023-04-25T06:53:44;9.05;;;2.88;;
56806;SDS011;42687;42.524;12.052;2023-04-25T06:56:10;6.97;;;3.42;;
56806;SDS011;42687;42.524;12.052;2023-04-25T06:58:35;7.95;;;3.97;;
56806;SDS011;42687;42.524;12.052;2023-04-25T07:01:01;7.68;;;2.50;;
56806;SDS011;42687;42.524;12.052;2023-04-25T07:03:27;5.90;;;2.28;;
56806;SDS011;42687;42.524;12.052;2023-04-25T07:05:53;6.80;;;2.53;;
56806;SDS011;42687;42.524;12.052;2023-04-25T07:08:19;10.02;;;3.67;;
56806;SDS011;42687;42.524;12.052;2023-04-25T07:10:45;4.47;;;2.15;;
56806;SDS011;42687;42.524;12.052;2023-04-25T07:13:11;11.63;;;2.80;;
56806;SDS011;42687;42.524;12.052;2023-04-25T07:15:37;8.30;;;3.20;;
56806;SDS011;42687;42.524;12.052;2023-04-25T07:18:03;9.40;;;2.42;;
56806;SDS011;42687;42.524;12.052;2023-04-25T07:20:28;6.03;;;2.15;;
56806;SDS011;42687;42.524;12.052;2023-04-25T07:22:56;4.82;;;2.13;;
56806;SDS011;42687;42.524;12.052;2023-04-25T07:25:22;8.10;;;3.53;;
56806;SDS011;42687;42.524;12.052;2023-04-25T07:27:48;4.70;;;2.10;;
56806;SDS011;42687;42.524;12.052;2023-04-25T07:30:14;8.25;;;3.15;;
56806;SDS011;42687;42.524;12.052;2023-04-25T07:32:40;11.60;;;4.13;;
56806;SDS011;42687;42.524;12.052;2023-04-25T07:35:05;5.65;;;2.05;;
56806;SDS011;42687;42.524;12.052;2023-04-25T07:37:32;7.20;;;2.88;;
56806;SDS011;42687;42.524;12.052;2023-04-25T07:39:59;5.38;;;2.22;;
56806;SDS011;42687;42.524;12.052;2023-04-25T07:42:25;5.40;;;2.20;;
56806;SDS011;42687;42.524;12.052;2023-04-25T07:44:50;9.93;;;3.92;;
56806;SDS011;42687;42.524;12.052;2023-04-25T07:47:16;9.95;;;3.88;;
56806;SDS011;42687;42.524;12.052;2023-04-25T07:49:44;8.88;;;2.75;;
56806;SDS011;42687;42.524;12.052;2023-04-25T07:52:10;11.55;;;3.88;;
56806;SDS011;42687;42.524;12.052;2023-04-25T07:54:36;7.32;;;3.53;;
56806;SDS011;42687;42.524;12.052;2023-04-25T07:57:02;9.73;;;3.95;;
56806;SDS011;42687;42.524;12.052;2023-04-25T07:59:28;7.72;;;2.67;;
56806;SDS011;42687;42.524;12.052;2023-04-25T08:01:54;7.43;;;3.47;;
56806;SDS011;42687;42.524;12.052;2023-04-25T08:04:22;9.50;;;3.13;;
56806;SDS011;42687;42.524;12.052;2023-04-25T10:07:48;18.85;;;9.10;;
56806;SDS011;42687;42.524;12.052;2023-04-25T10:10:13;12.60;;;5.40;;
56806;SDS011;42687;42.524;12.052;2023-04-25T10:12:40;12.13;;;5.80;;
56806;SDS011;42687;42.524;12.052;2023-04-25T10:15:08;7.20;;;2.78;;
56806;SDS011;42687;42.524;12.052;2023-04-25T10:17:35;7.82;;;3.30;;
56806;SDS011;42687;42.524;12.052;2023-04-25T10:20:02;6.47;;;2.38;;
56806;SDS011;42687;42.524;12.052;2023-04-25T10:22:37;10.52;;;4.28;;
56806;SDS011;42687;42.524;12.052;2023-04-25T10:25:06;6.88;;;3.58;;
56806;SDS011;42687;42.524;12.052;2023-04-25T10:27:34;10.27;;;3.60;;
56806;SDS011;42687;42.524;12.052;2023-04-25T10:32:49;5.60;;;2.50;;
56806;SDS011;42687;42.524;12.052;2023-04-25T10:35:16;7.28;;;2.83;;
56806;SDS011;42687;42.524;12.052;2023-04-25T10:37:57;7.05;;;2.67;;
56806;SDS011;42687;42.524;12.052;2023-04-25T10:40:26;5.15;;;1.80;;
56806;SDS011;42687;42.524;12.052;2023-04-25T10:42:52;7.40;;;2.47;;
56806;SDS011;42687;42.524;12.052;2023-04-25T10:45:22;8.55;;;2.75;;
56806;SDS011;42687;42.524;12.052;2023-04-25T10:47:47;7.28;;;2.80;;
56806;SDS011;42687;42.524;12.052;2023-04-25T10:50:16;6.55;;;3.10;;
56806;SDS011;42687;42.524;12.052;2023-04-25T10:52:42;7.93;;;2.85;;
56806;SDS011;42687;42.524;12.052;2023-04-25T10:55:09;11.02;;;4.47;;
56806;SDS011;42687;42.524;12.052;2023-04-25T10:57:39;15.40;;;4.00;;
56806;SDS011;42687;42.524;12.052;2023-04-25T11:00:08;7.30;;;3.30;;
56806;SDS011;42687;42.524;12.052;2023-04-25T11:02:45;8.52;;;3.65;;
56806;SDS011;42687;42.524;12.052;2023-04-25T11:08:01;7.40;;;3.80;;
56806;SDS011;42687;42.524;12.052;2023-04-25T11:10:29;5.22;;;2.72;;
56806;SDS011;42687;42.524;12.052;2023-04-25T11:13:01;5.55;;;2.67;;
56806;SDS011;42687;42.524;12.052;2023-04-25T11:15:27;5.72;;;2.03;;
56806;SDS011;42687;42.524;12.052;2023-04-25T11:17:54;7.25;;;2.70;;
56806;SDS011;42687;42.524;12.052;2023-04-25T11:20:21;8.73;;;2.72;;
56806;SDS011;42687;42.524;12.052;2023-04-25T11:22:48;7.90;;;2.80;;
56806;SDS011;42687;42.524;12.052;2023-04-25T11:25:14;5.55;;;2.47;;
56806;SDS011;42687;42.524;12.052;2023-04-25T11:27:54;6.95;;;2.58;;
56806;SDS011;42687;42.524;12.052;2023-04-25T11:30:22;3.97;;;2.53;;
56806;SDS011;42687;42.524;12.052;2023-04-25T11:32:50;7.55;;;3.00;;
56806;SDS011;42687;42.524;12.052;2023-04-25T11:35:17;7.10;;;3.22;;
56806;SDS011;42687;42.524;12.052;2023-04-25T11:37:45;8.55;;;3.10;;
56806;SDS011;42687;42.524;12.052;2023-04-25T11:40:11;9.23;;;2.88;;
56806;SDS011;42687;42.524;12.052;2023-04-25T11:42:43;5.45;;;2.45;;
56806;SDS011;42687;42.524;12.052;2023-04-25T11:45:10;9.13;;;3.15;;
56806;SDS011;42687;42.524;12.052;2023-04-25T11:47:36;5.30;;;2.28;;
56806;SDS011;42687;42.524;12.052;2023-04-25T11:50:03;6.22;;;3.17;;
56806;SDS011;42687;42.524;12.052;2023-04-25T11:52:43;5.75;;;2.90;;
56806;SDS011;42687;42.524;12.052;2023-04-25T11:55:13;7.68;;;2.70;;
56806;SDS011;42687;42.524;12.052;2023-04-25T11:57:45;6.35;;;2.00;;
56806;SDS011;42687;42.524;12.052;2023-04-25T12:00:17;7.90;;;3.38;;
56806;SDS011;42687;42.524;12.052;2023-04-25T12:02:51;5.95;;;2.63;;
56806;SDS011;42687;42.524;12.052;2023-04-25T12:05:18;12.05;;;3.58;;
56806;SDS011;42687;42.524;12.052;2023-04-25T12:07:45;4.35;;;2.60;;
56806;SDS011;42687;42.524;12.052;2023-04-25T12:10:12;9.40;;;3.60;;
56806;SDS011;42687;42.524;12.052;2023-04-25T12:12:44;6.55;;;2.55;;
56806;SDS011;42687;42.524;12.052;2023-04-25T12:17:38;8.00;;;2.80;;
56806;SDS011;42687;42.524;12.052;2023-04-25T12:20:11;6.72;;;2.63;;
56806;SDS011;42687;42.524;12.052;2023-04-25T12:22:42;4.82;;;1.83;;
56806;SDS011;42687;42.524;12.052;2023-04-25T12:25:33;3.42;;;1.95;;
56806;SDS011;42687;42.524;12.052;2023-04-25T12:33:24;5.55;;;2.10;;
56806;SDS011;42687;42.524;12.052;2023-04-25T12:35:52;4.95;;;1.77;;
56806;SDS011;42687;42.524;12.052;2023-04-25T12:38:25;5.72;;;2.47;;
56806;SDS011;42687;42.524;12.052;2023-04-25T12:40:55;6.88;;;2.50;;
56806;SDS011;42687;42.524;12.052;2023-04-25T12:43:22;6.65;;;1.98;;
56806;SDS011;42687;42.524;12.052;2023-04-25T12:45:48;7.22;;;2.03;;
56806;SDS011;42687;42.524;12.052;2023-04-25T12:48:16;2.17;;;1.10;;
56806;SDS011;42687;42.524;12.052;2023-04-25T12:50:42;6.13;;;2.95;;
56806;SDS011;42687;42.524;12.052;2023-04-25T12:53:08;3.25;;;1.58;;
56806;SDS011;42687;42.524;12.052;2023-04-25T12:55:34;4.32;;;1.75;;
56806;SDS011;42687;42.524;12.052;2023-04-25T12:58:00;6.75;;;3.03;;
56806;SDS011;42687;42.524;12.052;2023-04-25T13:00:28;3.33;;;1.55;;
56806;SDS011;42687;42.524;12.052;2023-04-25T13:02:54;4.90;;;2.10;;
56806;SDS011;42687;42.524;12.052;2023-04-25T13:05:20;9.77;;;4.80;;
56806;SDS011;42687;42.524;12.052;2023-04-25T13:07:46;3.03;;;1.70;;
56806;SDS011;42687;42.524;12.052;2023-04-25T13:10:12;5.15;;;2.42;;
56806;SDS011;42687;42.524;12.052;2023-04-25T13:12:38;6.10;;;2.67;;
56806;SDS011;42687;42.524;12.052;2023-04-25T13:15:04;5.43;;;1.60;;
56806;SDS011;42687;42.524;12.052;2023-04-25T13:17:30;5.30;;;1.73;;
56806;SDS011;42687;42.524;12.052;2023-04-25T13:19:56;3.05;;;2.45;;
56806;SDS011;42687;42.524;12.052;2023-04-25T13:22:22;6.88;;;2.38;;
56806;SDS011;42687;42.524;12.052;2023-04-25T13:24:47;3.10;;;1.63;;
56806;SDS011;42687;42.524;12.052;2023-04-25T13:27:13;5.28;;;2.55;;
56806;SDS011;42687;42.524;12.052;2023-04-25T13:29:39;4.25;;;1.52;;
56806;SDS011;42687;42.524;12.052;2023-04-25T13:32:06;4.28;;;1.55;;
56806;SDS011;42687;42.524;12.052;2023-04-25T13:34:32;4.57;;;1.77;;
56806;SDS011;42687;42.524;12.052;2023-04-25T13:36:58;3.70;;;1.70;;
56806;SDS011;42687;42.524;12.052;2023-04-25T13:39:24;5.88;;;1.45;;
56806;SDS011;42687;42.524;12.052;2023-04-25T13:41:50;6.00;;;2.10;;
56806;SDS011;42687;42.524;12.052;2023-04-25T13:44:15;1.80;;;1.13;;
56806;SDS011;42687;42.524;12.052;2023-04-25T13:46:41;8.32;;;2.58;;
56806;SDS011;42687;42.524;12.052;2023-04-25T13:49:07;3.70;;;2.55;;
56806;SDS011;42687;42.524;12.052;2023-04-25T13:51:33;5.03;;;2.05;;
56806;SDS011;42687;42.524;12.052;2023-04-25T13:53:59;6.47;;;2.42;;
56806;SDS011;42687;42.524;12.052;2023-04-25T13:56:25;3.25;;;1.38;;
56806;SDS011;42687;42.524;12.052;2023-04-25T13:58:51;5.47;;;2.50;;
56806;SDS011;42687;42.524;12.052;2023-04-25T14:01:17;5.78;;;2.20;;
56806;SDS011;42687;42.524;12.052;2023-04-25T14:03:45;11.25;;;5.60;;
56806;SDS011;42687;42.524;12.052;2023-04-25T14:06:10;8.43;;;4.57;;
56806;SDS011;42687;42.524;12.052;2023-04-25T14:08:37;5.40;;;2.88;;
56806;SDS011;42687;42.524;12.052;2023-04-25T14:11:04;4.80;;;3.20;;
56806;SDS011;42687;42.524;12.052;2023-04-25T14:13:29;4.43;;;2.25;;
56806;SDS011;42687;42.524;12.052;2023-04-25T14:15:55;2.30;;;1.48;;
56806;SDS011;42687;42.524;12.052;2023-04-25T14:18:21;2.67;;;1.75;;
56806;SDS011;42687;42.524;12.052;2023-04-25T14:20:47;3.03;;;1.65;;
56806;SDS011;42687;42.524;12.052;2023-04-25T14:23:13;10.45;;;3.30;;
56806;SDS011;42687;42.524;12.052;2023-04-25T14:25:39;2.92;;;1.83;;
56806;SDS011;42687;42.524;12.052;2023-04-25T14:28:07;4.65;;;2.80;;
56806;SDS011;42687;42.524;12.052;2023-04-25T14:30:32;2.70;;;2.05;;
56806;SDS011;42687;42.524;12.052;2023-04-25T14:32:58;3.88;;;1.90;;
56806;SDS011;42687;42.524;12.052;2023-04-25T14:35:24;11.43;;;3.70;;
56806;SDS011;42687;42.524;12.052;2023-04-25T14:37:50;4.90;;;2.08;;
56806;SDS011;42687;42.524;12.052;2023-04-25T14:40:16;6.97;;;1.92;;
56806;SDS011;42687;42.524;12.052;2023-04-25T14:42:42;3.88;;;1.35;;
56806;SDS011;42687;42.524;12.052;2023-04-25T14:45:08;3.22;;;1.13;;
56806;SDS011;42687;42.524;12.052;2023-04-25T14:47:37;3.25;;;1.63;;
56806;SDS011;42687;42.524;12.052;2023-04-25T14:50:04;4.22;;;1.48;;
56806;SDS011;42687;42.524;12.052;2023-04-25T14:52:31;3.20;;;1.35;;
56806;SDS011;42687;42.524;12.052;2023-04-25T14:54:57;3.40;;;2.05;;
56806;SDS011;42687;42.524;12.052;2023-04-25T14:57:22;2.53;;;1.73;;
56806;SDS011;42687;42.524;12.052;2023-04-25T14:59:48;2.75;;;1.60;;
56806;SDS011;42687;42.524;12.052;2023-04-25T15:02:14;2.30;;;1.10;;
56806;SDS011;42687;42.524;12.052;2023-04-25T15:04:40;4.32;;;2.38;;
56806;SDS011;42687;42.524;12.052;2023-04-25T15:07:06;2.10;;;1.10;;
56806;SDS011;42687;42.524;12.052;2023-04-25T15:09:32;3.85;;;1.95;;
56806;SDS011;42687;42.524;12.052;2023-04-25T15:11:58;1.77;;;1.05;;
56806;SDS011;42687;42.524;12.052;2023-04-25T15:14:24;4.82;;;2.28;;
56806;SDS011;42687;42.524;12.052;2023-04-25T15:16:49;4.15;;;2.00;;
56806;SDS011;42687;42.524;12.052;2023-04-25T15:19:15;2.00;;;1.48;;
56806;SDS011;42687;42.524;12.052;2023-04-25T15:21:41;3.25;;;1.60;;
56806;SDS011;42687;42.524;12.052;2023-04-25T15:24:07;4.70;;;2.25;;
56806;SDS011;42687;42.524;12.052;2023-04-25T15:26:33;4.68;;;1.40;;
56806;SDS011;42687;42.524;12.052;2023-04-25T15:28:59;5.75;;;2.38;;
56806;SDS011;42687;42.524;12.052;2023-04-25T15:31:24;4.10;;;2.13;;
56806;SDS011;42687;42.524;12.052;2023-04-25T15:33:50;3.17;;;1.65;;
56806;SDS011;42687;42.524;12.052;2023-04-25T15:36:16;4.32;;;1.63;;
56806;SDS011;42687;42.524;12.052;2023-04-25T15:38:43;3.45;;;2.30;;
56806;SDS011;42687;42.524;12.052;2023-04-25T15:41:09;9.00;;;3.15;;
56806;SDS011;42687;42.524;12.052;2023-04-25T15:43:35;2.63;;;1.40;;
56806;SDS011;42687;42.524;12.052;2023-04-25T15:46:05;7.22;;;3.05;;
56806;SDS011;42687;42.524;12.052;2023-04-25T15:48:31;9.40;;;2.00;;
56806;SDS011;42687;42.524;12.052;2023-04-25T15:50:57;8.60;;;2.45;;
56806;SDS011;42687;42.524;12.052;2023-04-25T15:53:23;3.90;;;2.22;;
56806;SDS011;42687;42.524;12.052;2023-04-25T15:55:50;4.68;;;2.58;;
56806;SDS011;42687;42.524;12.052;2023-04-25T15:58:15;7.57;;;2.38;;
56806;SDS011;42687;42.524;12.052;2023-04-25T16:00:41;4.10;;;2.97;;
56806;SDS011;42687;42.524;12.052;2023-04-25T16:03:07;4.10;;;1.63;;
56806;SDS011;42687;42.524;12.052;2023-04-25T16:05:34;10.85;;;4.15;;
56806;SDS011;42687;42.524;12.052;2023-04-25T16:08:00;7.18;;;2.20;;
56806;SDS011;42687;42.524;12.052;2023-04-25T16:10:26;4.28;;;2.13;;
56806;SDS011;42687;42.524;12.052;2023-04-25T16:12:52;12.57;;;5.38;;
56806;SDS011;42687;42.524;12.052;2023-04-25T16:15:17;9.07;;;5.93;;
56806;SDS011;42687;42.524;12.052;2023-04-25T16:17:43;9.05;;;4.75;;
56806;SDS011;42687;42.524;12.052;2023-04-25T16:20:10;21.00;;;13.55;;
56806;SDS011;42687;42.524;12.052;2023-04-25T16:22:38;15.88;;;7.63;;
56806;SDS011;42687;42.524;12.052;2023-04-25T16:25:05;5.93;;;3.35;;
56806;SDS011;42687;42.524;12.052;2023-04-25T16:27:32;4.32;;;2.38;;
56806;SDS011;42687;42.524;12.052;2023-04-25T16:30:03;7.53;;;2.38;;
56806;SDS011;42687;42.524;12.052;2023-04-25T16:32:32;4.07;;;1.95;;
56806;SDS011;42687;42.524;12.052;2023-04-25T16:34:58;3.17;;;1.60;;
56806;SDS011;42687;42.524;12.052;2023-04-25T16:37:24;4.97;;;2.15;;
56806;SDS011;42687;42.524;12.052;2023-04-25T16:39:51;5.30;;;2.53;;
56806;SDS011;42687;42.524;12.052;2023-04-25T16:42:16;4.30;;;1.83;;